Time;durP1;ratioP1;P1;durP2;ratioP2;P2;SDS_P1;SDS_P2;PMS_P1;PMS_P2;Temp;Humidity;BMP_temperature;BMP_pressure;BME280_temperature;BME280_humidity;BME280_pressure;Samples;Min_cycle;Max_cycle;Signal;HPM_P1;HPM_P2
2022/10/30 00:00:55;;;;;;;9.23;5.83;;;16.60;99.90;;;17.14;nan;100945.25;4975139;28;20626;-62
2022/10/30 00:03:22;;;;;;;12.20;6.20;;;16.70;99.90;;;17.21;nan;100941.03;4973543;28;20639;-64
2022/10/30 00:05:50;;;;;;;12.30;5.30;;;16.70;99.90;;;17.19;nan;100940.34;4971229;28;21170;-64
2022/10/30 00:08:20;;;;;;;13.50;6.17;;;16.70;99.90;;;17.16;nan;100940.66;4969880;28;20721;-64
2022/10/30 00:10:49;;;;;;;13.97;6.37;;;16.70;99.90;;;17.27;nan;100930.72;4972856;28;20627;-64
2022/10/30 00:13:18;;;;;;;11.23;5.83;;;16.70;99.90;;;17.24;nan;100933.69;4978068;28;20677;-63
2022/10/30 00:15:52;;;;;;;15.50;6.37;;;16.70;99.90;;;17.33;nan;100938.09;4978899;28;20630;-65
2022/10/30 00:18:20;;;;;;;9.60;5.40;;;16.80;99.90;;;17.39;nan;100934.00;4982061;28;20668;-63
2022/10/30 00:20:47;;;;;;;10.40;5.30;;;16.80;99.90;;;17.46;nan;100940.38;4991118;28;20629;-65
2022/10/30 00:23:15;;;;;;;8.80;5.00;;;16.80;99.90;;;17.49;nan;100926.88;4989088;28;21242;-65
2022/10/30 00:25:42;;;;;;;7.73;5.10;;;16.80;99.90;;;17.52;nan;100945.09;4994858;28;20645;-63
2022/10/30 00:28:09;;;;;;;15.87;6.70;;;16.90;99.90;;;17.57;nan;100948.94;4990426;28;20663;-65
2022/10/30 00:30:36;;;;;;;8.77;5.60;;;16.90;99.90;;;17.58;nan;100941.88;4995050;28;20631;-63
2022/10/30 00:33:03;;;;;;;6.27;5.50;;;17.00;99.90;;;17.66;nan;100939.31;4991074;28;20666;-64
2022/10/30 00:35:31;;;;;;;11.80;5.53;;;17.00;99.90;;;17.67;nan;100940.97;4995467;28;20610;-63
2022/10/30 00:37:59;;;;;;;9.57;5.53;;;17.10;99.90;;;17.52;nan;100937.19;4994841;28;20653;-64
2022/10/30 00:40:27;;;;;;;7.40;4.53;;;17.00;99.90;;;17.61;nan;100939.75;4995537;28;20676;-63
2022/10/30 00:42:54;;;;;;;12.97;5.53;;;17.00;99.90;;;17.47;nan;100929.66;4993832;28;20630;-63
2022/10/30 00:45:21;;;;;;;8.43;5.70;;;17.00;99.90;;;17.41;nan;100937.34;4995480;28;20618;-63
2022/10/30 00:47:59;;;;;;;10.30;5.47;;;17.00;99.90;;;17.56;nan;100936.75;4994579;28;20642;-63
2022/10/30 00:50:32;;;;;;;9.13;5.10;;;17.00;99.90;;;17.67;nan;100933.06;4995493;28;20630;-63
2022/10/30 00:53:03;;;;;;;6.63;5.30;;;17.10;99.90;;;17.64;nan;100933.34;4973360;28;20681;-65
2022/10/30 00:55:38;;;;;;;8.93;5.43;;;17.10;99.90;;;17.57;nan;100930.47;4984486;28;20619;-63
2022/10/30 00:58:09;;;;;;;7.27;4.47;;;17.00;99.90;;;17.53;nan;100930.91;4993521;28;20653;-65
2022/10/30 01:00:41;;;;;;;7.20;4.63;;;17.00;99.90;;;17.53;nan;100925.63;4969095;28;20626;-64
2022/10/30 01:03:08;;;;;;;8.63;5.57;;;17.00;99.90;;;17.48;nan;100922.59;4957958;28;20627;-64
2022/10/30 01:05:36;;;;;;;11.77;5.97;;;17.00;99.90;;;17.45;nan;100922.88;4974067;28;20628;-63
2022/10/30 01:08:03;;;;;;;7.83;5.30;;;16.90;99.90;;;17.42;nan;100923.19;4987164;28;20658;-63
2022/10/30 01:10:30;;;;;;;12.30;5.37;;;16.90;99.90;;;17.43;nan;100922.19;4993400;28;20661;-65
2022/10/30 01:12:58;;;;;;;14.43;5.90;;;16.90;99.90;;;17.33;nan;100918.78;4985935;28;20655;-63
2022/10/30 01:15:33;;;;;;;13.33;5.73;;;16.90;99.90;;;17.34;nan;100915.16;4973829;28;20645;-63
2022/10/30 01:18:48;;;;;;;8.20;5.03;;;16.80;99.90;;;17.53;nan;100923.81;4956284;28;20641;-66
2022/10/30 01:22:02;;;;;;;11.07;5.03;;;16.90;99.90;;;17.43;nan;100919.56;4967139;28;20631;-63
2022/10/30 01:24:56;;;;;;;13.33;5.47;;;16.90;99.90;;;17.43;nan;100919.56;4993855;28;20679;-64
2022/10/30 01:27:57;;;;;;;9.40;4.93;;;16.90;99.90;;;17.39;nan;100918.19;4992951;28;20663;-62
2022/10/30 01:30:58;;;;;;;12.70;4.57;;;16.90;99.90;;;17.23;nan;100916.19;4990551;28;20639;-64
2022/10/30 01:34:02;;;;;;;7.80;5.30;;;16.80;99.90;;;17.29;nan;100912.13;4991660;28;21243;-64
2022/10/30 01:36:51;;;;;;;8.90;5.07;;;16.80;99.90;;;17.22;nan;100909.25;4980895;28;20638;-63
2022/10/30 01:39:24;;;;;;;11.00;4.97;;;16.70;99.90;;;17.16;nan;100909.00;4976757;28;20633;-64
2022/10/30 01:41:52;;;;;;;9.40;5.77;;;16.70;99.90;;;17.16;nan;100912.47;4976649;28;21178;-63
2022/10/30 01:44:30;;;;;;;8.97;5.30;;;16.70;99.90;;;17.18;nan;100917.59;4977247;28;21024;-64
2022/10/30 01:47:06;;;;;;;10.20;5.30;;;16.70;99.90;;;17.24;nan;100909.94;4993889;28;20649;-63
2022/10/30 01:50:10;;;;;;;11.77;5.40;;;16.70;99.90;;;17.06;nan;100901.97;4975252;28;20630;-63
2022/10/30 01:52:57;;;;;;;10.57;5.50;;;16.60;99.90;;;17.08;nan;100889.47;4994426;28;20716;-64
2022/10/30 01:56:05;;;;;;;8.67;5.33;;;16.60;99.90;;;17.00;nan;100892.00;4973267;28;20978;-64
2022/10/30 01:58:48;;;;;;;8.00;4.77;;;16.60;99.90;;;17.07;nan;100900.16;4974453;28;20651;-64
2022/10/30 02:01:16;;;;;;;9.80;4.77;;;16.60;99.90;;;17.06;nan;100904.59;4976208;28;20638;-64
2022/10/30 02:03:45;;;;;;;8.17;5.10;;;16.60;99.90;;;17.08;nan;100902.66;4981929;28;21035;-66
2022/10/30 02:06:12;;;;;;;10.73;5.53;;;16.60;99.90;;;16.92;nan;100906.88;4955598;28;21179;-65
2022/10/30 02:08:39;;;;;;;9.20;5.60;;;16.50;99.90;;;16.96;nan;100897.72;4971413;28;20663;-65
2022/10/30 02:11:06;;;;;;;8.40;5.37;;;16.50;99.90;;;16.98;nan;100899.22;4972951;28;20617;-63
2022/10/30 02:13:33;;;;;;;13.63;5.60;;;16.50;99.90;;;16.92;nan;100897.16;4981052;28;21031;-63
2022/10/30 02:16:00;;;;;;;9.13;5.90;;;16.40;99.90;;;16.92;nan;100898.97;4974067;28;20618;-65
2022/10/30 02:18:28;;;;;;;14.67;6.70;;;16.40;99.90;;;17.10;nan;100899.03;4972554;28;20656;-63
2022/10/30 02:20:55;;;;;;;14.47;5.87;;;16.50;99.90;;;16.88;nan;100898.44;4974105;28;20619;-66
2022/10/30 02:23:22;;;;;;;12.43;6.30;;;16.40;99.90;;;16.90;nan;100911.47;4972836;28;20631;-60
2022/10/30 02:25:49;;;;;;;9.40;5.73;;;16.40;99.90;;;16.94;nan;100911.03;4992544;28;20637;-66
2022/10/30 02:28:16;;;;;;;10.57;5.93;;;16.40;99.90;;;16.97;nan;100912.56;4991670;28;20704;-63
2022/10/30 02:30:43;;;;;;;11.17;4.93;;;16.40;99.90;;;17.01;nan;100909.47;4992353;28;20630;-64
2022/10/30 02:33:10;;;;;;;8.63;5.03;;;16.40;99.90;;;16.84;nan;100907.63;4991885;28;20650;-64
2022/10/30 02:35:37;;;;;;;7.67;5.10;;;16.40;99.90;;;16.73;nan;100910.41;4991192;28;20638;-66
2022/10/30 02:38:04;;;;;;;7.03;4.33;;;16.40;99.90;;;16.85;nan;100917.16;4973840;28;20666;-63
2022/10/30 02:40:31;;;;;;;13.97;5.70;;;16.30;99.90;;;16.79;nan;100912.47;4972642;28;20623;-65
2022/10/30 02:42:58;;;;;;;13.13;5.57;;;16.30;99.90;;;16.76;nan;100914.56;4986243;28;20673;-64
2022/10/30 02:45:25;;;;;;;9.57;5.50;;;16.30;99.90;;;16.88;nan;100924.78;4988072;28;21182;-63
2022/10/30 02:47:52;;;;;;;12.53;5.67;;;16.30;99.90;;;16.77;nan;100917.06;4973415;28;20671;-64
2022/10/30 02:50:19;;;;;;;8.37;5.90;;;16.30;99.90;;;16.78;nan;100918.69;4972427;28;21298;-64
2022/10/30 02:52:46;;;;;;;13.40;5.80;;;16.20;99.90;;;16.78;nan;100908.16;4991692;28;20674;-65
2022/10/30 02:55:13;;;;;;;8.47;5.10;;;16.30;99.90;;;16.85;nan;100911.88;4988806;28;20643;-64
2022/10/30 02:57:41;;;;;;;9.43;4.87;;;16.30;99.90;;;16.78;nan;100908.16;4992420;28;20663;-66
2022/10/30 03:00:09;;;;;;;13.60;4.90;;;16.30;99.90;;;16.60;nan;100901.97;4992526;28;20626;-63
2022/10/30 03:02:36;;;;;;;10.53;4.73;;;16.20;99.90;;;16.45;nan;100898.09;4972543;28;20644;-65
2022/10/30 03:05:03;;;;;;;7.93;5.43;;;16.10;99.90;;;16.65;nan;100898.94;4990250;28;20636;-63
2022/10/30 03:07:30;;;;;;;8.80;4.87;;;16.20;99.90;;;16.52;nan;100901.88;4990974;28;20673;-65
2022/10/30 03:09:57;;;;;;;8.73;5.20;;;16.10;99.90;;;16.41;nan;100896.72;4991859;28;20621;-64
2022/10/30 03:12:24;;;;;;;10.20;4.90;;;16.00;99.90;;;16.42;nan;100893.09;4989741;28;20682;-63
2022/10/30 03:14:51;;;;;;;7.57;4.70;;;16.10;99.90;;;16.42;nan;100895.72;4990044;28;20607;-63
2022/10/30 03:17:18;;;;;;;14.60;5.27;;;16.00;99.90;;;16.42;nan;100894.94;4982479;28;20688;-63
2022/10/30 03:19:45;;;;;;;11.57;5.50;;;16.00;99.90;;;16.42;nan;100894.94;4991287;28;20623;-65
2022/10/30 03:22:12;;;;;;;18.10;5.37;;;16.00;99.90;;;16.43;nan;100900.03;4985903;28;20637;-63
2022/10/30 03:24:39;;;;;;;6.20;4.63;;;15.90;99.90;;;16.42;nan;100898.38;4989110;28;20689;-63
2022/10/30 03:27:06;;;;;;;6.60;4.73;;;16.00;99.90;;;16.42;nan;100903.63;4991016;28;20653;-65
2022/10/30 03:29:33;;;;;;;8.27;5.00;;;15.90;99.90;;;16.37;nan;100899.78;4978035;28;20684;-65
2022/10/30 03:31:59;;;;;;;5.50;4.63;;;15.90;99.90;;;16.38;nan;100897.00;4973642;28;20639;-63
2022/10/30 03:34:26;;;;;;;8.87;5.37;;;15.90;99.90;;;16.46;nan;100902.38;4991153;28;21415;-63
2022/10/30 03:36:53;;;;;;;9.70;5.67;;;15.90;99.90;;;16.46;nan;100905.00;4979628;28;21229;-63
2022/10/30 03:39:20;;;;;;;9.53;5.20;;;15.90;99.90;;;16.51;nan;100902.81;4955044;28;20626;-63
2022/10/30 03:41:47;;;;;;;8.77;5.37;;;16.00;99.90;;;16.39;nan;100906.56;4971450;28;20642;-64
2022/10/30 03:44:14;;;;;;;7.33;5.53;;;15.90;99.90;;;16.41;nan;100903.78;4990847;28;20632;-63
2022/10/30 03:46:41;;;;;;;9.40;6.23;;;15.90;99.90;;;16.39;nan;100909.19;4984478;28;20638;-64
2022/10/30 03:49:08;;;;;;;12.00;6.00;;;15.90;99.90;;;16.44;nan;100920.13;4989110;28;20636;-63
2022/10/30 03:51:35;;;;;;;6.97;5.77;;;15.90;99.90;;;16.39;nan;100927.63;4990553;28;20644;-64
2022/10/30 03:54:02;;;;;;;8.33;5.60;;;15.90;99.90;;;16.37;nan;100921.69;4990723;28;20700;-63
2022/10/30 03:56:29;;;;;;;9.40;5.40;;;15.90;99.90;;;16.38;nan;100920.69;5009372;28;20626;-66
2022/10/30 03:58:56;;;;;;;12.93;6.17;;;15.90;99.90;;;16.37;nan;100919.03;5006571;28;20688;-64
2022/10/30 04:01:23;;;;;;;11.80;5.83;;;15.90;99.90;;;16.30;nan;100925.84;4991125;28;20627;-63
2022/10/30 04:03:50;;;;;;;7.87;5.40;;;15.80;99.90;;;16.30;nan;100912.66;5005683;28;20688;-63
2022/10/30 04:06:17;;;;;;;9.47;6.13;;;15.80;99.90;;;16.28;nan;100911.97;5011074;28;20614;-63
2022/10/30 04:08:44;;;;;;;9.30;5.63;;;15.80;99.90;;;16.29;nan;100917.09;4993230;28;21032;-64
2022/10/30 04:11:11;;;;;;;11.57;5.37;;;15.80;99.90;;;16.30;nan;100912.66;4991250;28;20618;-64
2022/10/30 04:13:38;;;;;;;8.47;5.93;;;15.80;99.90;;;16.29;nan;100924.19;4976318;28;20734;-64
2022/10/30 04:16:05;;;;;;;13.53;6.57;;;15.80;99.90;;;16.23;nan;100922.91;4972413;28;20635;-63
2022/10/30 04:18:32;;;;;;;9.30;6.23;;;15.80;99.90;;;16.19;nan;100923.34;4971299;28;20647;-64
2022/10/30 04:21:00;;;;;;;8.73;6.00;;;15.70;99.90;;;16.13;nan;100926.53;4971311;28;20627;-62
2022/10/30 04:23:27;;;;;;;13.17;6.00;;;15.70;99.90;;;16.14;nan;100925.56;4972347;28;20641;-66
2022/10/30 04:25:53;;;;;;;8.90;5.90;;;15.70;99.90;;;16.15;nan;100929.84;4986067;28;20647;-64
2022/10/30 04:28:20;;;;;;;11.67;6.00;;;15.70;99.90;;;16.16;nan;100924.44;4990072;28;20639;-63
2022/10/30 04:30:47;;;;;;;7.90;5.17;;;15.70;99.90;;;16.05;nan;100916.72;4977139;28;20640;-63
2022/10/30 04:33:14;;;;;;;10.03;4.90;;;15.60;99.90;;;15.98;nan;100914.75;4971639;28;20663;-64
2022/10/30 04:35:41;;;;;;;10.63;4.67;;;15.60;99.90;;;16.07;nan;100921.81;4993481;28;20636;-63
2022/10/30 04:38:14;;;;;;;11.23;5.93;;;15.60;99.90;;;16.01;nan;100930.28;4990848;28;20661;-63
2022/10/30 04:40:43;;;;;;;12.80;6.63;;;15.60;99.90;;;16.15;nan;100932.47;4987565;28;20645;-64
2022/10/30 04:43:11;;;;;;;9.53;6.13;;;15.60;99.90;;;16.09;nan;100925.16;4983250;28;20639;-63
2022/10/30 04:45:39;;;;;;;15.77;4.60;;;15.60;99.90;;;16.06;nan;100928.03;4987387;28;20635;-63
2022/10/30 04:48:09;;;;;;;8.90;4.90;;;15.60;99.90;;;15.99;nan;100926.94;4970488;28;20674;-64
2022/10/30 04:50:37;;;;;;;9.00;6.23;;;15.60;99.90;;;15.96;nan;100933.31;4969502;28;20639;-63
2022/10/30 04:53:13;;;;;;;14.30;5.80;;;15.50;99.90;;;15.89;nan;100924.28;4970378;28;20663;-62
2022/10/30 04:55:40;;;;;;;14.50;5.50;;;15.50;99.90;;;15.89;nan;100926.94;4989907;28;20643;-64
2022/10/30 04:58:08;;;;;;;10.43;5.47;;;15.40;99.90;;;16.00;nan;100921.53;4990370;28;20684;-63
2022/10/30 05:00:35;;;;;;;8.40;4.90;;;15.50;99.90;;;15.76;nan;100917.66;4989500;28;20642;-64
2022/10/30 05:03:03;;;;;;;13.57;5.33;;;15.40;99.90;;;15.79;nan;100922.63;5001159;28;21367;-64
2022/10/30 05:05:31;;;;;;;7.97;4.50;;;15.40;99.90;;;15.91;nan;100921.53;5000462;28;21007;-63
2022/10/30 05:07:58;;;;;;;10.77;5.53;;;15.40;99.90;;;15.80;nan;100919.03;4992990;28;20696;-63
2022/10/30 05:10:25;;;;;;;15.07;5.33;;;15.40;99.90;;;15.60;nan;100922.59;4986465;28;20632;-63
2022/10/30 05:12:53;;;;;;;9.07;5.00;;;15.30;99.90;;;15.51;nan;100914.56;4973911;28;20665;-64
2022/10/30 05:15:20;;;;;;;10.17;5.00;;;15.20;99.90;;;15.23;nan;100914.41;4973851;28;20635;-63
2022/10/30 05:17:52;;;;;;;8.67;5.03;;;15.10;99.90;;;15.42;nan;100915.31;4975261;28;20697;-65
2022/10/30 05:20:20;;;;;;;20.70;5.70;;;15.10;99.90;;;15.24;nan;100910.84;4974185;28;20628;-64
2022/10/30 05:22:57;;;;;;;12.27;5.57;;;15.00;99.90;;;15.26;nan;100915.00;4975408;28;21219;-63
2022/10/30 05:25:25;;;;;;;5.77;4.60;;;14.90;99.90;;;15.31;nan;100917.25;4989593;28;20639;-63
2022/10/30 05:28:05;;;;;;;9.37;5.13;;;14.90;99.90;;;15.26;nan;100909.75;4971615;28;20669;-62
2022/10/30 05:30:33;;;;;;;6.50;4.57;;;14.90;99.90;;;15.25;nan;100908.06;4956288;28;20661;-64
2022/10/30 05:33:06;;;;;;;10.50;5.37;;;14.90;99.90;;;15.14;nan;100904.72;4973437;28;21258;-63
2022/10/30 05:35:34;;;;;;;18.53;6.00;;;14.90;99.90;;;15.25;nan;100907.22;4956617;28;20607;-65
2022/10/30 05:38:05;;;;;;;7.30;5.03;;;14.90;99.90;;;15.24;nan;100911.69;4973571;28;21254;-63
2022/10/30 05:40:33;;;;;;;10.20;4.77;;;14.90;99.90;;;15.24;nan;100906.41;4974189;28;21026;-63
2022/10/30 05:43:00;;;;;;;10.93;5.40;;;14.90;99.90;;;15.28;nan;100910.44;4973683;28;21022;-65
2022/10/30 05:45:27;;;;;;;13.40;5.47;;;14.90;99.90;;;15.26;nan;100903.66;4973402;28;21200;-64
2022/10/30 05:48:00;;;;;;;8.17;4.90;;;14.90;99.90;;;15.28;nan;100912.22;4973413;28;20685;-64
2022/10/30 05:50:28;;;;;;;8.00;4.80;;;14.90;99.90;;;15.27;nan;100911.38;4987801;28;20638;-65
2022/10/30 05:53:03;;;;;;;7.07;5.07;;;14.90;99.90;;;15.25;nan;100918.59;4983375;28;20709;-63
2022/10/30 05:55:31;;;;;;;14.90;5.50;;;14.90;99.90;;;15.15;nan;100909.00;5001739;28;20637;-64
2022/10/30 05:58:02;;;;;;;7.90;5.47;;;14.80;99.90;;;15.26;nan;100924.69;4994256;28;21128;-64
2022/10/30 06:00:34;;;;;;;10.47;6.23;;;14.80;99.90;;;15.23;nan;100919.66;4991011;28;20606;-64
2022/10/30 06:03:08;;;;;;;10.83;5.50;;;14.80;99.90;;;15.23;nan;100922.31;4973275;28;20615;-63
2022/10/30 06:05:36;;;;;;;14.73;5.47;;;14.80;99.90;;;15.32;nan;100919.72;4955403;28;20615;-64
2022/10/30 06:08:05;;;;;;;6.80;4.53;;;14.80;99.90;;;15.36;nan;100926.38;4984635;28;20668;-64
2022/10/30 06:10:33;;;;;;;9.60;5.27;;;14.80;99.90;;;15.08;nan;100916.56;4992925;28;20700;-64
2022/10/30 06:13:04;;;;;;;8.70;5.07;;;14.80;99.90;;;15.30;nan;100926.91;4985243;28;20663;-63
2022/10/30 06:15:32;;;;;;;9.80;3.90;;;14.80;99.90;;;15.18;nan;100917.44;4962405;28;21190;-63
2022/10/30 06:17:59;;;;;;;12.90;5.10;;;14.80;99.90;;;14.96;nan;100924.69;4996685;28;20667;-61
2022/10/30 06:20:29;;;;;;;13.30;7.30;;;14.70;99.90;;;15.07;nan;100924.59;5003525;28;20654;-64
2022/10/30 06:23:05;;;;;;;13.27;7.17;;;14.70;99.90;;;15.15;nan;100933.50;4972120;28;20636;-63
2022/10/30 06:25:34;;;;;;;6.90;5.27;;;14.70;99.90;;;15.18;nan;100937.66;4956461;28;20719;-65
2022/10/30 06:28:08;;;;;;;11.17;6.50;;;14.70;99.90;;;15.19;nan;100937.53;4973453;28;21251;-65
2022/10/30 06:30:35;;;;;;;13.33;5.60;;;14.70;99.90;;;15.24;nan;100927.44;4990397;28;20644;-63
2022/10/30 06:33:04;;;;;;;9.50;5.80;;;14.70;99.90;;;15.33;nan;100933.72;4995724;28;20633;-64
2022/10/30 06:35:31;;;;;;;6.97;5.07;;;14.80;99.90;;;15.42;nan;100944.25;4991556;28;20680;-63
2022/10/30 06:38:01;;;;;;;10.80;5.60;;;14.90;99.90;;;15.50;nan;100941.00;4987290;28;20651;-63
2022/10/30 06:40:28;;;;;;;7.27;5.00;;;14.90;99.90;;;15.65;nan;100937.03;4972568;28;20627;-63
2022/10/30 06:42:56;;;;;;;7.93;5.00;;;15.00;99.90;;;15.90;nan;100935.66;4972234;28;20628;-62
2022/10/30 06:45:24;;;;;;;6.10;4.40;;;15.10;99.90;;;16.02;nan;100942.44;4974522;28;20651;-63
2022/10/30 06:47:51;;;;;;;5.43;4.73;;;15.30;99.90;;;16.23;nan;100937.88;4997234;28;20658;-64
2022/10/30 06:50:21;;;;;;;7.87;4.60;;;15.50;99.90;;;16.14;nan;100944.81;4991009;28;21530;-63
2022/10/30 06:52:48;;;;;;;9.10;4.00;;;15.60;99.90;;;16.16;nan;100939.44;4993848;28;20999;-63
2022/10/30 06:55:15;;;;;;;6.30;4.50;;;15.60;99.90;;;16.44;nan;100938.56;4999238;28;20684;-65
2022/10/30 06:57:43;;;;;;;7.47;4.10;;;15.70;99.90;;;16.84;nan;100941.88;4971968;28;20659;-63
2022/10/30 07:00:11;;;;;;;12.13;4.67;;;15.90;99.90;;;17.23;nan;100939.09;4974811;28;20641;-63
2022/10/30 07:02:38;;;;;;;7.27;5.07;;;16.20;99.90;;;17.38;nan;100943.72;4974212;28;20634;-63
2022/10/30 07:05:06;;;;;;;6.37;4.57;;;16.50;99.90;;;17.57;nan;100942.81;4991939;28;20625;-64
2022/10/30 07:07:32;;;;;;;8.53;5.20;;;16.60;99.90;;;18.10;nan;100941.06;4991631;28;20671;-62
2022/10/30 07:09:59;;;;;;;9.67;6.00;;;16.90;99.90;;;19.08;nan;100957.53;4989291;28;21208;-66
2022/10/30 07:12:26;;;;;;;8.27;5.57;;;17.30;99.90;;;20.29;nan;100962.44;4984986;28;20642;-64
2022/10/30 07:14:53;;;;;;;13.20;6.07;;;18.00;99.90;;;21.40;nan;100959.81;4991459;28;20670;-65
2022/10/30 07:17:20;;;;;;;6.97;5.23;;;18.80;99.90;;;22.06;nan;100962.00;4987239;28;20668;-63
2022/10/30 07:19:47;;;;;;;7.50;4.60;;;19.50;99.90;;;21.89;nan;100958.59;4991294;28;20617;-64
2022/10/30 07:22:14;;;;;;;10.60;5.10;;;19.80;99.90;;;22.45;nan;100967.16;4990622;28;20635;-64
2022/10/30 07:24:41;;;;;;;11.70;5.50;;;20.30;99.90;;;22.84;nan;100959.84;4953888;28;20640;-64
2022/10/30 07:27:08;;;;;;;10.70;4.90;;;20.60;99.90;;;22.91;nan;100964.25;4990400;28;20673;-66
2022/10/30 07:29:35;;;;;;;10.57;4.77;;;20.90;99.90;;;22.71;nan;100964.97;5003995;28;20632;-64
2022/10/30 07:32:02;;;;;;;5.93;5.30;;;21.00;99.90;;;22.42;nan;100971.03;5001751;28;20731;-63
2022/10/30 07:34:30;;;;;;;11.53;5.47;;;20.90;99.90;;;22.61;nan;100977.72;4993822;28;21077;-63
2022/10/30 07:36:57;;;;;;;10.27;5.97;;;20.90;99.90;;;23.03;nan;100969.97;5011354;28;20622;-63
2022/10/30 07:39:24;;;;;;;7.03;5.20;;;21.10;99.90;;;23.17;nan;100959.31;5003915;28;20640;-63
2022/10/30 07:41:51;;;;;;;7.00;5.40;;;21.20;99.90;;;23.12;nan;100964.41;4993697;28;20644;-64
2022/10/30 07:44:18;;;;;;;9.20;5.40;;;21.40;99.90;;;23.17;nan;100967.31;5005789;28;21014;-65
2022/10/30 07:46:45;;;;;;;8.33;5.13;;;21.40;99.90;;;22.90;nan;100967.94;4999106;28;20642;-60
2022/10/30 07:49:12;;;;;;;7.90;5.50;;;21.40;99.90;;;22.52;nan;100974.25;4972110;28;20641;-64
2022/10/30 07:51:39;;;;;;;5.97;4.70;;;21.10;99.90;;;22.41;nan;100964.03;4970998;28;20658;-63
2022/10/30 07:54:06;;;;;;;9.40;6.17;;;21.00;99.90;;;22.39;nan;100969.53;4975791;28;21056;-64
2022/10/30 07:56:33;;;;;;;7.90;5.87;;;20.90;99.90;;;22.86;nan;100961.34;4986141;28;20633;-63
2022/10/30 07:58:59;;;;;;;7.63;6.03;;;21.00;99.90;;;23.35;nan;100966.97;4993007;28;20656;-63
2022/10/30 08:01:26;;;;;;;11.27;6.90;;;21.10;99.90;;;24.47;nan;100975.22;4976810;28;21082;-64
2022/10/30 08:03:53;;;;;;;11.70;5.60;;;21.80;99.90;;;25.33;nan;100976.69;5003135;28;20692;-63
2022/10/30 08:06:20;;;;;;;10.97;6.43;;;22.40;99.90;;;26.25;nan;100977.88;4981716;28;20639;-63
2022/10/30 08:08:50;;;;;;;16.30;9.57;;;23.10;99.90;;;27.78;nan;100973.75;4976213;28;20658;-64
2022/10/30 08:11:17;;;;;;;10.17;5.87;;;24.00;99.90;;;29.89;nan;100977.03;4991235;28;20619;-63
2022/10/30 08:13:44;;;;;;;10.53;5.80;;;25.40;99.90;;;31.86;nan;100983.28;4989731;28;20677;-63
2022/10/30 08:16:11;;;;;;;15.23;6.20;;;26.80;99.90;;;33.08;nan;100992.44;4975763;28;20634;-64
2022/10/30 08:18:41;;;;;;;8.13;5.70;;;28.00;98.70;;;33.94;nan;100988.09;5009781;28;21112;-63
2022/10/30 08:21:08;;;;;;;10.20;5.70;;;29.00;95.20;;;35.19;nan;100992.94;5004397;28;20640;-63
2022/10/30 08:23:35;;;;;;;6.70;5.47;;;30.10;92.30;;;36.00;nan;100989.47;4979408;28;21247;-64
2022/10/30 08:26:04;;;;;;;7.80;5.47;;;30.80;89.20;;;35.56;nan;100985.56;4973575;28;20632;-63
2022/10/30 08:28:32;;;;;;;10.07;5.10;;;31.20;83.90;;;36.37;nan;100983.81;5010299;28;20656;-65
2022/10/30 08:31:00;;;;;;;12.90;5.87;;;31.60;81.90;;;37.26;nan;100981.25;4986312;28;20635;-66
2022/10/30 08:33:27;;;;;;;7.20;5.20;;;32.30;78.90;;;37.93;nan;100981.50;4954385;28;20638;-67
2022/10/30 08:35:57;;;;;;;9.17;5.83;;;32.90;75.80;;;38.25;nan;100981.00;4970627;28;20619;-67
2022/10/30 08:38:25;;;;;;;9.50;5.60;;;33.40;72.90;;;38.21;nan;100973.69;4973834;28;20763;-67
2022/10/30 08:40:53;;;;;;;8.13;5.97;;;33.50;71.20;;;38.36;nan;100976.28;4989594;28;20693;-68
2022/10/30 08:43:20;;;;;;;6.63;5.40;;;33.80;69.50;;;38.80;nan;100977.00;4983269;28;21228;-66
2022/10/30 08:45:47;;;;;;;31.00;16.07;;;34.10;68.00;;;38.84;nan;100980.78;4994130;28;20633;-70
2022/10/30 08:48:15;;;;;;;9.83;5.87;;;34.30;66.70;;;38.38;nan;100972.19;4990630;28;20676;-66
2022/10/30 08:50:45;;;;;;;10.30;5.93;;;34.10;66.30;;;39.19;nan;100972.19;4994575;28;20614;-68
2022/10/30 08:53:14;;;;;;;9.60;6.17;;;34.30;65.90;;;39.91;nan;100965.47;4982944;28;20689;-66
2022/10/30 08:55:41;;;;;;;6.13;5.50;;;34.70;65.10;;;40.19;nan;100967.25;4965907;28;20674;-67
2022/10/30 08:58:08;;;;;;;8.00;5.47;;;34.90;64.10;;;40.26;nan;100958.66;4989397;28;20692;-67
2022/10/30 09:00:35;;;;;;;6.90;5.63;;;35.20;63.10;;;40.40;nan;100967.75;4989747;28;20630;-66
2022/10/30 09:03:03;;;;;;;18.73;5.73;;;35.30;62.90;;;41.89;nan;100958.72;4988375;28;20639;-67
2022/10/30 09:05:31;;;;;;;7.13;5.50;;;36.00;61.80;;;43.14;nan;100953.81;4972428;28;20642;-67
2022/10/30 09:07:59;;;;;;;7.60;5.30;;;36.70;60.80;;;43.24;nan;100942.50;4986521;28;20666;-67
2022/10/30 09:10:27;;;;;;;9.53;6.10;;;37.30;59.00;;;42.87;nan;100941.13;4986957;28;21182;-67
2022/10/30 09:12:58;;;;;;;6.00;5.40;;;37.30;58.30;;;41.95;nan;100935.56;4987825;28;21053;-67
2022/10/30 09:15:26;;;;;;;6.93;5.37;;;36.90;58.10;;;41.55;nan;100940.00;4987594;28;21249;-66
2022/10/30 09:18:02;;;;;;;8.37;4.90;;;36.50;58.00;;;42.03;nan;100933.97;4983080;28;20669;-66
2022/10/30 09:20:30;;;;;;;13.40;5.90;;;36.70;58.00;;;40.98;nan;100933.28;4973668;28;20627;-67
2022/10/30 09:22:57;;;;;;;7.33;5.50;;;36.70;57.20;;;42.87;nan;100945.81;4956549;28;20690;-67
2022/10/30 09:25:25;;;;;;;7.53;5.10;;;37.20;57.30;;;43.55;nan;100948.72;4964610;28;20626;-67
2022/10/30 09:27:52;;;;;;;6.10;5.40;;;37.70;56.10;;;44.09;nan;100946.50;4984195;28;21123;-62
2022/10/30 09:30:19;;;;;;;5.40;4.60;;;38.10;55.50;;;43.74;nan;100956.69;4990478;28;21182;-64
2022/10/30 09:32:53;;;;;;;5.37;4.87;;;38.20;56.00;;;44.86;nan;100955.34;4978342;28;20657;-63
2022/10/30 09:35:21;;;;;;;8.10;6.20;;;38.60;54.80;;;45.65;nan;100962.81;4981067;28;22242;-64
2022/10/30 09:37:48;;;;;;;6.47;5.87;;;39.20;54.20;;;46.15;nan;100959.97;4986449;28;20657;-64
2022/10/30 09:40:33;;;;;;;6.50;5.20;;;39.70;53.30;;;46.05;nan;100969.47;4993170;28;20657;-64
2022/10/30 09:43:40;;;;;;;8.80;5.47;;;39.70;52.70;;;46.02;nan;100961.88;4976691;28;20603;-62
2022/10/30 09:46:47;;;;;;;10.47;5.50;;;39.90;52.50;;;45.40;nan;100956.34;4977635;28;20713;-63
2022/10/30 09:49:53;;;;;;;5.93;5.30;;;39.60;52.30;;;45.71;nan;100958.72;4977093;28;21230;-63
2022/10/30 09:52:38;;;;;;;10.17;5.77;;;39.60;52.40;;;45.69;nan;100956.31;4990149;28;20642;-64
2022/10/30 09:55:28;;;;;;;6.70;5.27;;;39.60;52.10;;;46.34;nan;100950.03;4979589;28;20679;-65
2022/10/30 09:58:35;;;;;;;7.83;5.30;;;39.90;51.90;;;46.46;nan;100952.81;5004196;23;20652;-64
2022/10/30 10:01:17;;;;;;;7.83;5.00;;;40.10;51.60;;;46.05;nan;100963.94;5016820;28;21208;-65
2022/10/30 10:04:41;;;;;;;7.47;5.50;;;40.10;51.20;;;44.75;nan;100948.56;5010589;28;20638;-65
2022/10/30 10:07:20;;;;;;;6.13;4.80;;;39.60;51.30;;;40.50;nan;100944.88;4990183;28;20644;-64
2022/10/30 10:09:51;;;;;;;6.03;5.13;;;37.70;52.40;;;41.06;nan;100950.13;5005189;28;21060;-65
2022/10/30 10:12:41;;;;;;;12.97;5.57;;;37.20;53.20;;;39.89;nan;100943.13;5014456;28;20616;-64
2022/10/30 10:15:41;;;;;;;7.90;5.00;;;36.60;53.60;;;38.84;nan;100937.13;5002270;28;20665;-65
2022/10/30 10:18:22;;;;;;;10.57;4.73;;;35.90;54.40;;;37.82;nan;100927.38;5044629;28;20728;-65
2022/10/30 10:20:55;;;;;;;9.17;5.50;;;35.10;55.50;;;34.10;nan;100927.63;5047682;28;20766;-64
2022/10/30 10:23:48;;;;;;;10.90;6.00;;;33.20;57.50;;;31.30;nan;100921.22;5015442;28;20659;-65
2022/10/30 10:26:52;;;;;;;8.30;5.10;;;31.00;60.60;;;29.12;nan;100908.69;5015288;28;20695;-64
2022/10/30 10:29:33;;;;;;;10.07;5.20;;;29.10;64.70;;;27.42;nan;100910.00;5011697;28;20677;-64
2022/10/30 10:32:37;;;;;;;8.67;5.30;;;27.30;68.40;;;26.69;nan;100916.53;5020149;28;20630;-64
2022/10/30 10:35:51;;;;;;;7.90;5.57;;;26.30;71.50;;;25.40;nan;100910.75;4993472;28;21221;-64
2022/10/30 10:38:56;;;;;;;7.97;4.60;;;25.20;75.20;;;24.79;nan;100912.47;5011495;28;20957;-65
2022/10/30 10:42:20;;;;;;;13.60;5.00;;;24.40;79.30;;;24.07;nan;100909.22;5011025;28;20632;-63